Share

Dows, IA (50071)

2:49 PM CDT on April 24, 2014 (GMT -0500)
Clarion Municipal (KCAV) Elev 1161 ft | 42.74 °N, 93.76 °W | Change Station

Current weather conditions updated 14 minutes ago

Overcast
Overcast
52 °F
Feels Like 52 °F
N
15
Wind Variable Wind from NNW
Gusts 24 mph
Sunrise 6:18 AM
Sunset 8:06 PM
Moon Waning Crescent

Today is forecast to be Warmer than yesterday.

Pressure 29.66 in
Visibility 10.0 miles
Clouds Scattered Clouds 2200 ft
Overcast 5000 ft
Dew Point 45 °F
Humidity 76%
Rainfall 0.14 in
Snow Depth Not available.
UV 3 out of 16
Pollen 2.30 out of 12
Air Quality Not available.
Flu Activity Sporadic
METAR KCAV 241935Z AUTO 33013G21KT 10SM SCT022 OVC050 11/07 A2966 RMK AO2

More Conditions Fewer Conditions

Pressure 29.66 in
Visibility 10.0 miles
Clouds Scattered Clouds 2200 ft
Overcast 5000 ft
Dew Point 45 °F
Humidity 76%
Rainfall 0.14 in
Snow Depth Not available.
UV 3 out of 16
Pollen 2.30 out of 12
Air Quality Not available.
Flu Activity Sporadic
METAR KCAV 241935Z AUTO 33013G21KT 10SM SCT022 OVC050 11/07 A2966 RMK AO2

More Conditions Fewer Conditions

10-Day Weather Forecast

Almanac

Astronomy

Apr. 24, 2014 Rise Set
Actual Time 6:18 AM CDT 8:06 PM CDT
Civil Twilight 5:48 AM CDT 8:36 PM CDT
Nautical Twilight 5:11 AM CDT 9:13 PM CDT
Astronomical Twilight 4:32 AM CDT 9:53 PM CDT
Moon 3:37 AM CDT 3:16 PM CDT
Length of Visible Light 14h 48m
Length of Day
13h 47m
Tomorrow will be 2m 38s longer.
Waning Crescent, 23% of the Moon is Illuminated
Today
Waning Crescent
Apr 29
New
May 6
First Quarter
May 14
Full
May 21
Last Quarter

Today's Extremes

State Highs State Lows

Community

  • Sunset at Apalachicola Bay, Florida
    Sunset at Apalachicola Bay, Florida
  • Clouds mov'n in
    Clouds mov'n in
  • Stacked
    Stacked
  • clouds approaching Red Sox Nation
    clouds approaching Red Sox Nation
  • Balance
    Balance

WunderPhotos

Upload Photos

1,704,708 photos uploaded!

Nearby

Snow Depth

Station Depth Elevation
No new snow has been reported.

Coastal Water Temperatures

Place Temperature
No Stations Reporting

Earthquake Activity

City Distance Mag. Time & Date
No recent earthquake activity has been reported nearby.
Minimum magnitude displayed is 2.5.

Nearby Weather Stations

Station Location Temp. Dew Point Humidity Wind Precip. Elev Updated Type
Beeds Addition, Hampton, IA 52.0 °F 49 °F 89% NW  at  9.2 mph 0.00 in / hr 1145 ft 2:49 PM CDT Rapid Fire
Jensen Farm, Iowa Falls, IA 52.6 °F 48 °F 85% WNW  at  7.0 mph 0.00 in / hr 1129 ft 2:49 PM CDT Rapid Fire

Show More Stations Show Fewer Stations

What do you think?

We're not finished. Please let us know what you like, what you don't like, and what you are still missing.